VILK/LKO METAR and TAF weather

Enter ICAO airport designator
Station Type Date Time Source
VILK METAR 2023/02/06 18:30 UTC NOAA

VILK 061830Z 00000KT 2500 BR SCT100 16/15 Q1010 NOSIG


Station Type Date Time Source
VILK Decoded METAR 2023/02/06 18:30 UTC NOAA

Lucknow / Amausi, India (VILK) 26-45N 080-53E 128M
Feb 06, 2023 - 01:30 PM EST / 2023.02.06 1830 UTC
Wind: Calm:0
Visibility: 1 mile(s):0
Sky conditions: partly cloudy
Weather: mist
Temperature: 60 F (16 C)
Dew Point: 59 F (15 C)
Relative Humidity: 93%
Pressure (altimeter): 29.83 in. Hg (1010 hPa)
ob: VILK 061830Z 00000KT 2500 BR SCT100 16/15 Q1010 NOSIG
cycle: 18

Station Type Date Time Source
VILK TAF 2023/02/06 18:45 UTC NOAA

VILK 061700Z 0618/0724 32004KT 2500 HZ BR NSC
BECMG 0620/0622 2000 BR
BECMG 0701/0703 27005KT 1200 BR
BECMG 0704/0706 VRB02KT 2000 HZ
BECMG 0707/0709 3000 HZ
BECMG 0709/0711 5000 HZ
BECMG 0720/0722 2000 BR

Example: see airport list